Time,TemperatureF,DewpointF,PressureIn,WindDirection,WindDirectionDegrees,WindSpeedMPH,WindSpeedGustMPH,Humidity,HourlyPrecipIn,Conditions,Clouds,dailyrainin,SoftwareType,DateUTC
2013-07-30 00:13:00,79.4,77.0,30.02,South,179,0.0,0.0,91,0.00,,,0.00,weatherlink.com 1.10,2013-07-29 22:13:00,
2013-07-30 00:28:00,79.1,76.0,30.02,South,178,0.0,0.0,91,0.00,,,0.00,weatherlink.com 1.10,2013-07-29 22:28:00,
2013-07-30 00:43:00,78.7,76.0,30.02,South,178,0.0,0.0,91,0.00,,,0.00,weatherlink.com 1.10,2013-07-29 22:43:00,
2013-07-30 00:58:00,78.2,75.0,30.02,South,178,0.0,0.0,91,0.00,,,0.00,weatherlink.com 1.10,2013-07-29 22:58:00,
2013-07-30 01:13:00,77.6,75.0,30.02,South,177,0.0,0.0,92,0.00,,,0.00,weatherlink.com 1.10,2013-07-29 23:13:00,
2013-07-30 02:13:00,77.1,75.0,30.00,South,178,0.0,0.0,93,0.00,,,0.00,weatherlink.com 1.10,2013-07-30 00:13:00,
2013-07-30 02:28:00,76.4,74.0,30.00,South,178,0.0,0.0,93,0.00,,,0.00,weatherlink.com 1.10,2013-07-30 00:28:00,
2013-07-30 02:58:00,76.2,74.0,30.00,ENE,58,0.0,1.0,94,0.00,,,0.00,weatherlink.com 1.10,2013-07-30 00:58:00,
2013-07-30 03:13:00,77.1,75.0,30.00,ENE,57,0.0,0.0,94,0.00,,,0.00,weatherlink.com 1.10,2013-07-30 01:13:00,
2013-07-30 03:28:00,77.1,75.0,30.01,ENE,57,0.0,0.0,92,0.00,,,0.00,weatherlink.com 1.10,2013-07-30 01:28:00,
2013-07-30 03:43:00,77.4,75.0,30.00,ENE,59,0.0,2.0,92,0.00,,,0.00,weatherlink.com 1.10,2013-07-30 01:43:00,
2013-07-30 03:58:00,77.3,74.0,30.00,ENE,57,0.0,2.0,89,0.00,,,0.00,weatherlink.com 1.10,2013-07-30 01:58:00,
2013-07-30 04:13:00,77.2,74.0,30.01,NE,54,4.0,4.0,88,0.00,,,0.00,weatherlink.com 1.10,2013-07-30 02:13:00,
2013-07-30 04:28:00,76.8,73.0,30.01,ENE,64,3.0,4.0,87,0.00,,,0.00,weatherlink.com 1.10,2013-07-30 02:28:00,
2013-07-30 04:43:00,76.6,71.0,30.01,ENE,58,2.0,5.0,82,0.00,,,0.00,weatherlink.com 1.10,2013-07-30 02:43:00,
2013-07-30 05:13:00,76.7,66.0,30.01,NE,41,4.0,7.0,70,0.00,,,0.00,weatherlink.com 1.10,2013-07-30 03:13:00,
2013-07-30 05:28:00,76.6,65.0,30.00,ENE,60,2.0,5.0,68,0.00,,,0.00,weatherlink.com 1.10,2013-07-30 03:28:00,
2013-07-30 05:43:00,76.3,65.0,30.01,ENE,65,3.0,5.0,68,0.00,,,0.00,weatherlink.com 1.10,2013-07-30 03:43:00,
2013-07-30 05:58:00,75.8,65.0,30.01,NE,56,1.0,3.0,69,0.00,,,0.00,weatherlink.com 1.10,2013-07-30 03:58:00,
2013-07-30 06:13:00,75.4,65.0,30.01,NE,54,1.0,3.0,70,0.00,,,0.00,weatherlink.com 1.10,2013-07-30 04:13:00,
2013-07-30 06:28:00,75.2,65.0,30.01,NE,34,1.0,3.0,71,0.00,,,0.00,weatherlink.com 1.10,2013-07-30 04:28:00,
2013-07-30 06:43:00,75.1,65.0,30.01,NE,51,2.0,3.0,71,0.00,,,0.00,weatherlink.com 1.10,2013-07-30 04:43:00,
2013-07-30 06:58:00,75.3,65.0,30.02,ENE,65,1.0,3.0,70,0.00,,,0.00,weatherlink.com 1.10,2013-07-30 04:58:00,
2013-07-30 07:13:00,75.7,64.0,30.02,East,84,2.0,2.0,68,0.00,,,0.00,weatherlink.com 1.10,2013-07-30 05:13:00,
2013-07-30 07:29:00,75.8,64.0,30.03,SSW,212,0.0,3.0,68,0.00,,,0.00,weatherlink.com 1.10,2013-07-30 05:29:00,
2013-07-30 07:44:00,76.1,64.0,30.03,NNE,27,1.0,4.0,66,0.00,,,0.00,weatherlink.com 1.10,2013-07-30 05:44:00,
2013-07-30 07:59:00,76.5,64.0,30.03,ENE,72,4.0,7.0,65,0.00,,,0.00,weatherlink.com 1.10,2013-07-30 05:59:00,
2013-07-30 08:14:00,76.9,64.0,30.03,ENE,74,4.0,6.0,64,0.00,,,0.00,weatherlink.com 1.10,2013-07-30 06:14:00,
2013-07-30 08:29:00,77.5,64.0,30.03,NNE,15,3.0,7.0,64,0.00,,,0.00,weatherlink.com 1.10,2013-07-30 06:29:00,
2013-07-30 08:44:00,77.7,64.0,30.04,ENE,70,3.0,7.0,63,0.00,,,0.00,weatherlink.com 1.10,2013-07-30 06:44:00,
2013-07-30 08:59:00,77.6,64.0,30.03,East,79,3.0,7.0,63,0.00,,,0.00,weatherlink.com 1.10,2013-07-30 06:59:00,
2013-07-30 09:14:00,78.3,64.0,30.03,ENE,78,6.0,6.0,61,0.00,,,0.00,weatherlink.com 1.10,2013-07-30 07:14:00,
2013-07-30 09:29:00,78.8,64.0,30.03,ENE,63,5.0,7.0,60,0.00,,,0.00,weatherlink.com 1.10,2013-07-30 07:29:00,
2013-07-30 09:44:00,79.3,63.0,30.03,NE,41,3.0,6.0,58,0.00,,,0.00,weatherlink.com 1.10,2013-07-30 07:44:00,
2013-07-30 09:59:00,79.7,64.0,30.03,East,79,0.0,3.0,58,0.00,,,0.00,weatherlink.com 1.10,2013-07-30 07:59:00,
2013-07-30 10:14:00,80.6,62.0,30.03,East,81,4.0,6.0,54,0.00,,,0.00,weatherlink.com 1.10,2013-07-30 08:14:00,
2013-07-30 10:29:00,81.0,64.0,30.02,ENE,75,6.0,6.0,56,0.00,,,0.00,weatherlink.com 1.10,2013-07-30 08:29:00,
2013-07-30 10:44:00,82.0,63.0,30.02,East,88,5.0,6.0,52,0.00,,,0.00,weatherlink.com 1.10,2013-07-30 08:44:00,
2013-07-30 10:59:00,82.3,63.0,30.02,ENE,65,4.0,4.0,52,0.00,,,0.00,weatherlink.com 1.10,2013-07-30 08:59:00,
2013-07-30 11:14:00,83.1,60.0,30.02,ENE,57,3.0,6.0,46,0.00,,,0.00,weatherlink.com 1.10,2013-07-30 09:14:00,
2013-07-30 11:29:00,83.7,61.0,30.02,NE,56,4.0,10.0,46,0.00,,,0.00,weatherlink.com 1.10,2013-07-30 09:29:00,
2013-07-30 11:44:00,84.1,59.0,30.02,East,86,5.0,9.0,43,0.00,,,0.00,weatherlink.com 1.10,2013-07-30 09:44:00,
2013-07-30 11:59:00,84.4,61.0,30.02,ENE,72,1.0,7.0,46,0.00,,,0.00,weatherlink.com 1.10,2013-07-30 09:59:00,
2013-07-30 12:14:00,85.1,59.0,30.01,NE,45,4.0,8.0,41,0.00,,,0.00,weatherlink.com 1.10,2013-07-30 10:14:00,
2013-07-30 12:29:00,85.4,58.0,30.01,East,79,3.0,8.0,39,0.00,,,0.00,weatherlink.com 1.10,2013-07-30 10:29:00,
2013-07-30 12:44:00,85.7,57.0,30.00,ENE,72,4.0,5.0,37,0.00,,,0.00,weatherlink.com 1.10,2013-07-30 10:44:00,
2013-07-30 12:59:00,86.6,59.0,30.00,NE,34,1.0,5.0,39,0.00,,,0.00,weatherlink.com 1.10,2013-07-30 10:59:00,
2013-07-30 13:14:00,86.8,59.0,30.00,ENE,65,4.0,8.0,39,0.00,,,0.00,weatherlink.com 1.10,2013-07-30 11:14:00,
2013-07-30 13:29:00,87.4,60.0,29.99,ENE,60,2.0,7.0,40,0.00,,,0.00,weatherlink.com 1.10,2013-07-30 11:29:00,
2013-07-30 13:44:00,88.0,62.0,29.99,NE,55,0.0,6.0,42,0.00,,,0.00,weatherlink.com 1.10,2013-07-30 11:44:00,
2013-07-30 13:59:00,87.8,65.0,29.99,ENE,71,3.0,6.0,47,0.00,,,0.00,weatherlink.com 1.10,2013-07-30 11:59:00,
2013-07-30 14:14:00,88.0,59.0,29.98,NNE,25,3.0,4.0,37,0.00,,,0.00,weatherlink.com 1.10,2013-07-30 12:14:00,
2013-07-30 14:29:00,88.6,65.0,29.98,East,82,4.0,5.0,46,0.00,,,0.00,weatherlink.com 1.10,2013-07-30 12:29:00,
2013-07-30 14:44:00,88.6,65.0,29.98,NE,48,3.0,6.0,46,0.00,,,0.00,weatherlink.com 1.10,2013-07-30 12:44:00,
2013-07-30 14:59:00,88.1,65.0,29.98,East,89,2.0,7.0,46,0.00,,,0.00,weatherlink.com 1.10,2013-07-30 12:59:00,
2013-07-30 15:14:00,88.3,66.0,29.97,ENE,72,3.0,3.0,48,0.00,,,0.00,weatherlink.com 1.10,2013-07-30 13:14:00,
2013-07-30 15:29:00,88.6,66.0,29.96,NE,37,1.0,4.0,48,0.00,,,0.00,weatherlink.com 1.10,2013-07-30 13:29:00,
2013-07-30 15:45:00,87.8,66.0,29.96,NNE,22,0.0,5.0,49,0.00,,,0.00,weatherlink.com 1.10,2013-07-30 13:45:00,
2013-07-30 16:00:00,88.1,67.0,29.96,South,172,0.0,4.0,50,0.00,,,0.00,weatherlink.com 1.10,2013-07-30 14:00:00,
2013-07-30 16:15:00,87.7,68.0,29.95,NE,37,2.0,5.0,52,0.00,,,0.00,weatherlink.com 1.10,2013-07-30 14:15:00,
2013-07-30 16:30:00,87.7,68.0,29.95,South,179,0.0,4.0,53,0.00,,,0.00,weatherlink.com 1.10,2013-07-30 14:30:00,
2013-07-30 16:45:00,87.1,68.0,29.95,East,95,0.0,4.0,53,0.00,,,0.00,weatherlink.com 1.10,2013-07-30 14:45:00,
2013-07-30 17:00:00,86.8,68.0,29.95,South,182,0.0,5.0,53,0.00,,,0.00,weatherlink.com 1.10,2013-07-30 15:00:00,
2013-07-30 17:15:00,86.4,67.0,29.95,South,185,0.0,6.0,53,0.00,,,0.00,weatherlink.com 1.10,2013-07-30 15:15:00,
2013-07-30 17:30:00,86.4,67.0,29.95,SSE,153,1.0,4.0,53,0.00,,,0.00,weatherlink.com 1.10,2013-07-30 15:30:00,
2013-07-30 17:45:00,86.6,67.0,29.95,South,181,0.0,2.0,53,0.00,,,0.00,weatherlink.com 1.10,2013-07-30 15:45:00,
2013-07-30 18:00:00,86.1,67.0,29.94,East,79,2.0,6.0,53,0.00,,,0.00,weatherlink.com 1.10,2013-07-30 16:00:00,
2013-07-30 18:15:00,85.8,67.0,29.94,East,81,4.0,6.0,54,0.00,,,0.00,weatherlink.com 1.10,2013-07-30 16:15:00,
2013-07-30 18:30:00,85.7,68.0,29.94,ENE,65,2.0,6.0,55,0.00,,,0.00,weatherlink.com 1.10,2013-07-30 16:30:00,
2013-07-30 18:45:00,85.4,69.0,29.94,ENE,63,1.0,5.0,58,0.00,,,0.00,weatherlink.com 1.10,2013-07-30 16:45:00,
2013-07-30 19:00:00,84.6,69.0,29.94,ENE,78,3.0,7.0,60,0.00,,,0.00,weatherlink.com 1.10,2013-07-30 17:00:00,
2013-07-30 19:15:00,84.4,70.0,29.94,ENE,72,1.0,3.0,62,0.00,,,0.00,weatherlink.com 1.10,2013-07-30 17:15:00,
2013-07-30 19:30:00,83.9,69.0,29.94,SSE,150,1.0,7.0,62,0.00,,,0.00,weatherlink.com 1.10,2013-07-30 17:30:00,
2013-07-30 19:45:00,83.6,69.0,29.94,NE,45,1.0,4.0,62,0.00,,,0.00,weatherlink.com 1.10,2013-07-30 17:45:00,
2013-07-30 20:00:00,83.2,69.0,29.94,NNE,22,1.0,4.0,63,0.00,,,0.00,weatherlink.com 1.10,2013-07-30 18:00:00,
2013-07-30 20:15:00,82.8,69.0,29.95,ENE,58,0.0,2.0,63,0.00,,,0.00,weatherlink.com 1.10,2013-07-30 18:15:00,
2013-07-30 20:30:00,82.8,67.0,29.95,NE,45,0.0,3.0,60,0.00,,,0.00,weatherlink.com 1.10,2013-07-30 18:30:00,
2013-07-30 20:45:00,82.4,67.0,29.95,ENE,70,0.0,0.0,60,0.00,,,0.00,weatherlink.com 1.10,2013-07-30 18:45:00,
2013-07-30 21:00:00,81.7,67.0,29.95,NE,46,0.0,0.0,61,0.00,,,0.00,weatherlink.com 1.10,2013-07-30 19:00:00,
2013-07-30 21:15:00,81.2,65.0,29.96,ENE,59,0.0,2.0,59,0.00,,,0.00,weatherlink.com 1.10,2013-07-30 19:15:00,
2013-07-30 21:30:00,81.0,65.0,29.96,NNE,20,1.0,1.0,58,0.00,,,0.00,weatherlink.com 1.10,2013-07-30 19:30:00,
2013-07-30 21:45:00,80.6,64.0,29.96,ENE,64,1.0,2.0,57,0.00,,,0.00,weatherlink.com 1.10,2013-07-30 19:45:00,
2013-07-30 22:00:00,80.3,64.0,29.96,ENE,65,1.0,1.0,57,0.00,,,0.00,weatherlink.com 1.10,2013-07-30 20:00:00,
2013-07-30 22:15:00,80.1,63.0,29.96,ENE,64,2.0,3.0,57,0.00,,,0.00,weatherlink.com 1.10,2013-07-30 20:15:00,
2013-07-30 22:30:00,79.7,63.0,29.97,NE,53,0.0,1.0,57,0.00,,,0.00,weatherlink.com 1.10,2013-07-30 20:30:00,
2013-07-30 22:45:00,79.6,63.0,29.97,NE,45,1.0,2.0,57,0.00,,,0.00,weatherlink.com 1.10,2013-07-30 20:45:00,
2013-07-30 23:00:00,79.4,63.0,29.97,NE,46,0.0,1.0,57,0.00,,,0.00,weatherlink.com 1.10,2013-07-30 21:00:00,
2013-07-30 23:15:00,79.0,63.0,29.97,NE,56,0.0,1.0,58,0.00,,,0.00,weatherlink.com 1.10,2013-07-30 21:15:00,
2013-07-30 23:30:00,78.9,62.0,29.97,ENE,57,0.0,0.0,57,0.00,,,0.00,weatherlink.com 1.10,2013-07-30 21:30:00,
2013-07-30 23:45:00,79.1,61.0,29.97,ENE,65,2.0,2.0,55,0.00,,,0.00,weatherlink.com 1.10,2013-07-30 21:45:00,